Time;durP1;ratioP1;P1;durP2;ratioP2;P2;SDS_P1;SDS_P2;PMS_P1;PMS_P2;Temp;Humidity;BMP_temperature;BMP_pressure;BME280_temperature;BME280_humidity;BME280_pressure;Samples;Min_cycle;Max_cycle;Signal;HPM_P1;HPM_P2
2024/01/23 00:01:42;;;;;;;;;;;16.40;54.80;;;;;;10203031;28;94765;-55
2024/01/23 00:06:44;;;;;;;;;;;16.30;54.80;;;;;;10205172;28;93397;-56
2024/01/23 00:11:46;;;;;;;;;;;16.30;54.50;;;;;;10203279;28;94946;-56
2024/01/23 00:16:48;;;;;;;;;;;16.30;54.20;;;;;;10205138;28;93957;-56
2024/01/23 00:21:50;;;;;;;;;;;16.30;54.00;;;;;;10200542;28;95795;-55
2024/01/23 00:26:52;;;;;;;;;;;16.30;53.80;;;;;;10204654;28;94666;-55
2024/01/23 00:31:53;;;;;;;;;;;16.30;53.60;;;;;;10203155;28;94263;-56
2024/01/23 00:36:55;;;;;;;;;;;16.30;53.30;;;;;;10203329;28;94432;-55
2024/01/23 00:41:57;;;;;;;;;;;16.30;53.10;;;;;;10202869;28;93509;-56
2024/01/23 00:46:59;;;;;;;;;;;16.20;53.00;;;;;;10201033;28;94483;-56
2024/01/23 00:52:01;;;;;;;;;;;16.30;53.50;;;;;;10203888;28;94284;-56
2024/01/23 00:57:05;;;;;;;;;;;16.20;54.10;;;;;;10192603;28;94200;-55
2024/01/23 01:02:07;;;;;;;;;;;16.20;54.20;;;;;;10198080;28;94659;-56
2024/01/23 01:07:09;;;;;;;;;;;16.20;53.90;;;;;;10199504;28;93593;-55
2024/01/23 01:12:11;;;;;;;;;;;16.20;53.70;;;;;;10199330;28;95831;-56
2024/01/23 01:17:13;;;;;;;;;;;16.10;53.40;;;;;;10203511;28;94692;-55
2024/01/23 01:22:15;;;;;;;;;;;16.20;53.30;;;;;;10202348;28;94471;-56
2024/01/23 01:27:17;;;;;;;;;;;16.20;54.10;;;;;;10195074;28;94528;-55
2024/01/23 01:32:19;;;;;;;;;;;16.20;52.90;;;;;;10188232;28;94428;-55
2024/01/23 01:37:21;;;;;;;;;;;16.20;52.70;;;;;;10200855;28;93505;-55
2024/01/23 01:42:22;;;;;;;;;;;16.20;52.60;;;;;;10201508;28;93380;-55
2024/01/23 01:47:24;;;;;;;;;;;16.20;53.20;;;;;;10201227;28;93848;-56
2024/01/23 01:52:26;;;;;;;;;;;16.10;53.70;;;;;;10178922;28;93633;-56
2024/01/23 01:57:30;;;;;;;;;;;16.10;54.70;;;;;;10185611;28;93475;-55
2024/01/23 02:02:32;;;;;;;;;;;16.10;53.40;;;;;;10634390;22;98037;-64
2024/01/23 02:07:34;;;;;;;;;;;16.10;53.10;;;;;;10104126;28;94226;-62
2024/01/23 02:12:44;;;;;;;;;;;16.10;52.80;;;;;;10133792;28;94453;-64
2024/01/23 02:17:47;;;;;;;;;;;16.10;52.60;;;;;;10114584;28;94534;-63
2024/01/23 02:22:49;;;;;;;;;;;16.10;52.40;;;;;;10118786;28;94611;-64
2024/01/23 02:27:51;;;;;;;;;;;16.10;52.30;;;;;;10116759;28;94408;-63
2024/01/23 02:32:52;;;;;;;;;;;16.10;52.20;;;;;;10119892;28;93807;-66
2024/01/23 02:37:54;;;;;;;;;;;16.10;51.90;;;;;;10114096;28;92098;-62
2024/01/23 02:42:56;;;;;;;;;;;16.10;52.80;;;;;;10118638;28;93553;-61
2024/01/23 02:47:58;;;;;;;;;;;16.00;53.20;;;;;;10118611;28;93525;-61
2024/01/23 02:53:00;;;;;;;;;;;16.00;53.20;;;;;;10125954;28;96863;-60
2024/01/23 02:58:02;;;;;;;;;;;16.00;52.90;;;;;;10121416;28;93432;-60
2024/01/23 03:03:04;;;;;;;;;;;16.00;52.70;;;;;;10120916;28;93059;-60
2024/01/23 03:08:06;;;;;;;;;;;16.00;52.50;;;;;;10125637;28;93262;-60
2024/01/23 03:13:07;;;;;;;;;;;16.00;52.30;;;;;;10123735;28;94224;-60
2024/01/23 03:18:09;;;;;;;;;;;16.00;52.20;;;;;;10122227;28;94042;-61
2024/01/23 03:23:11;;;;;;;;;;;16.00;51.90;;;;;;10093030;28;92579;-61
2024/01/23 03:28:13;;;;;;;;;;;16.00;51.90;;;;;;10114033;28;93415;-61
2024/01/23 03:33:15;;;;;;;;;;;16.00;51.90;;;;;;10120264;28;93987;-61
2024/01/23 03:38:18;;;;;;;;;;;15.90;52.60;;;;;;10132939;28;93508;-61
2024/01/23 03:43:19;;;;;;;;;;;15.90;53.10;;;;;;10125000;28;96830;-62
2024/01/23 03:48:21;;;;;;;;;;;15.90;52.90;;;;;;10092484;28;93651;-61
2024/01/23 03:53:23;;;;;;;;;;;15.90;53.00;;;;;;10120007;28;94277;-62
2024/01/23 03:58:25;;;;;;;;;;;16.00;52.70;;;;;;10133225;28;93425;-62
2024/01/23 04:03:26;;;;;;;;;;;16.00;52.30;;;;;;10119095;28;93468;-62
2024/01/23 04:08:28;;;;;;;;;;;16.10;52.20;;;;;;10110714;28;94911;-59
2024/01/23 04:13:30;;;;;;;;;;;16.00;51.80;;;;;;10123080;28;93767;-61
2024/01/23 04:18:32;;;;;;;;;;;16.00;51.80;;;;;;10103310;28;93086;-61
2024/01/23 04:23:38;;;;;;;;;;;16.00;51.60;;;;;;10112897;28;94526;-60
2024/01/23 04:28:40;;;;;;;;;;;16.00;51.60;;;;;;10112745;28;93603;-60
2024/01/23 04:33:41;;;;;;;;;;;16.00;52.20;;;;;;10099560;28;97155;-60
2024/01/23 04:38:43;;;;;;;;;;;16.00;52.60;;;;;;10124113;28;92932;-60
2024/01/23 04:43:46;;;;;;;;;;;15.90;52.50;;;;;;10121510;28;93919;-61
2024/01/23 04:48:47;;;;;;;;;;;15.90;52.50;;;;;;10099421;28;94713;-60
2024/01/23 04:53:52;;;;;;;;;;;15.90;52.30;;;;;;10108919;28;93497;-60
2024/01/23 04:58:54;;;;;;;;;;;15.90;52.20;;;;;;10105739;28;93523;-69
2024/01/23 05:03:56;;;;;;;;;;;15.90;52.00;;;;;;10123543;28;94729;-60
2024/01/23 05:08:58;;;;;;;;;;;15.90;51.90;;;;;;10101136;28;92710;-60
2024/01/23 05:14:01;;;;;;;;;;;15.80;52.10;;;;;;10119162;28;94566;-60
2024/01/23 05:19:03;;;;;;;;;;;16.00;52.10;;;;;;10118641;28;94758;-60
2024/01/23 05:24:05;;;;;;;;;;;16.30;51.90;;;;;;10114797;28;96804;-60
2024/01/23 05:29:07;;;;;;;;;;;16.50;52.00;;;;;;10123405;28;93370;-60
2024/01/23 05:34:09;;;;;;;;;;;16.70;52.00;;;;;;10118675;28;94376;-60
2024/01/23 05:39:12;;;;;;;;;;;16.80;51.90;;;;;;10120425;28;94625;-59
2024/01/23 05:44:13;;;;;;;;;;;17.00;52.90;;;;;;10116754;28;93252;-60
2024/01/23 05:49:15;;;;;;;;;;;17.20;52.90;;;;;;10117266;28;94151;-61
2024/01/23 05:54:18;;;;;;;;;;;17.20;52.60;;;;;;10110230;28;93394;-61
2024/01/23 05:59:20;;;;;;;;;;;17.20;52.90;;;;;;10102368;28;93938;-60
2024/01/23 06:04:26;;;;;;;;;;;17.10;53.40;;;;;;10117721;28;94246;-61
2024/01/23 06:09:29;;;;;;;;;;;17.20;53.50;;;;;;10123818;28;95566;-61
2024/01/23 06:14:31;;;;;;;;;;;17.30;53.40;;;;;;10108554;28;96029;-63
2024/01/23 06:19:32;;;;;;;;;;;17.20;53.10;;;;;;10124399;28;94297;-60
2024/01/23 06:24:59;;;;;;;;;;;17.20;53.00;;;;;;10120312;28;93506;-61
2024/01/23 06:30:01;;;;;;;;;;;17.10;53.10;;;;;;10129767;28;93421;-72
2024/01/23 06:35:03;;;;;;;;;;;17.20;54.00;;;;;;10121710;28;94039;-77
2024/01/23 06:40:06;;;;;;;;;;;17.30;54.00;;;;;;10128542;28;94762;-75
2024/01/23 06:45:08;;;;;;;;;;;17.30;55.70;;;;;;10126861;28;94799;-76
2024/01/23 06:50:11;;;;;;;;;;;17.30;55.10;;;;;;10124094;28;93097;-77
2024/01/23 06:55:13;;;;;;;;;;;17.20;54.90;;;;;;10122952;28;94399;-74
2024/01/23 07:00:15;;;;;;;;;;;17.10;55.60;;;;;;10114416;28;93867;-68
2024/01/23 07:05:17;;;;;;;;;;;17.00;55.50;;;;;;10120238;28;96820;-67
2024/01/23 07:10:19;;;;;;;;;;;16.90;55.10;;;;;;10100282;28;93500;-73
2024/01/23 07:15:21;;;;;;;;;;;16.90;55.70;;;;;;10125790;28;94546;-75
2024/01/23 07:20:23;;;;;;;;;;;16.80;57.70;;;;;;10119715;28;94144;-77
2024/01/23 07:25:25;;;;;;;;;;;16.70;57.10;;;;;;10113200;28;94538;-76
2024/01/23 07:30:27;;;;;;;;;;;16.70;56.70;;;;;;10120742;28;93544;-76
2024/01/23 07:35:28;;;;;;;;;;;16.60;56.40;;;;;;10110787;28;93860;-77
2024/01/23 07:40:30;;;;;;;;;;;16.50;56.20;;;;;;10115151;28;94637;-76
2024/01/23 07:45:32;;;;;;;;;;;16.50;56.30;;;;;;10131904;28;93818;-76
2024/01/23 07:50:35;;;;;;;;;;;16.40;56.30;;;;;;10126027;28;94054;-77
2024/01/23 07:55:37;;;;;;;;;;;16.40;56.30;;;;;;10126916;28;96261;-77
2024/01/23 08:00:40;;;;;;;;;;;16.40;56.20;;;;;;10135627;28;93395;-77
2024/01/23 08:05:42;;;;;;;;;;;16.30;56.00;;;;;;10121504;28;94469;-77
2024/01/23 08:10:45;;;;;;;;;;;16.30;56.10;;;;;;10131161;28;93095;-76
2024/01/23 08:15:48;;;;;;;;;;;16.20;55.90;;;;;;10120035;28;93824;-77
2024/01/23 08:20:50;;;;;;;;;;;16.20;56.30;;;;;;10109526;28;93552;-76
2024/01/23 08:25:52;;;;;;;;;;;16.20;57.80;;;;;;10122854;28;94177;-76
2024/01/23 08:30:53;;;;;;;;;;;16.10;57.60;;;;;;10119046;28;93706;-73
2024/01/23 08:35:55;;;;;;;;;;;16.10;58.70;;;;;;10117720;28;94516;-73
2024/01/23 08:40:57;;;;;;;;;;;16.10;58.40;;;;;;10118115;28;94752;-75
2024/01/23 08:45:59;;;;;;;;;;;16.00;58.20;;;;;;10118369;28;96342;-74
2024/01/23 08:51:01;;;;;;;;;;;16.00;58.30;;;;;;10119469;28;94173;-75
2024/01/23 08:56:03;;;;;;;;;;;16.00;58.30;;;;;;10121594;28;93400;-74
2024/01/23 09:01:05;;;;;;;;;;;16.00;58.40;;;;;;10117501;28;94636;-75
2024/01/23 09:06:09;;;;;;;;;;;16.00;58.30;;;;;;10106324;28;94747;-74
2024/01/23 09:11:11;;;;;;;;;;;15.90;58.20;;;;;;10119581;28;94304;-74
2024/01/23 09:16:13;;;;;;;;;;;15.90;58.10;;;;;;10113988;28;94145;-74
2024/01/23 09:21:15;;;;;;;;;;;15.90;58.00;;;;;;10114568;28;93371;-74
2024/01/23 09:26:17;;;;;;;;;;;15.90;57.90;;;;;;10120627;28;92854;-74
2024/01/23 09:31:19;;;;;;;;;;;15.90;57.80;;;;;;10113396;28;93492;-73
2024/01/23 09:36:22;;;;;;;;;;;15.90;57.90;;;;;;10110837;28;95763;-74
2024/01/23 09:41:27;;;;;;;;;;;15.90;57.70;;;;;;10116332;28;94498;-74
2024/01/23 09:46:30;;;;;;;;;;;15.90;57.60;;;;;;10115163;28;93483;-74
2024/01/23 09:51:32;;;;;;;;;;;15.90;57.60;;;;;;10116602;28;93732;-74
2024/01/23 09:56:34;;;;;;;;;;;15.90;57.50;;;;;;10111349;28;94168;-74
2024/01/23 10:01:36;;;;;;;;;;;15.90;57.40;;;;;;10127650;28;93723;-74
2024/01/23 10:06:39;;;;;;;;;;;15.90;57.20;;;;;;10112653;28;94500;-74
2024/01/23 10:11:41;;;;;;;;;;;15.90;57.20;;;;;;10109352;28;93386;-73
2024/01/23 10:16:46;;;;;;;;;;;16.00;57.30;;;;;;10124691;28;93669;-74
2024/01/23 10:21:48;;;;;;;;;;;16.00;57.30;;;;;;10128018;28;95300;-74
2024/01/23 10:26:50;;;;;;;;;;;15.90;58.20;;;;;;10121806;28;95139;-73
2024/01/23 10:31:52;;;;;;;;;;;15.90;57.20;;;;;;10120203;28;93458;-73
2024/01/23 10:36:57;;;;;;;;;;;15.90;57.10;;;;;;10127164;28;92610;-74
2024/01/23 10:41:59;;;;;;;;;;;15.90;57.20;;;;;;10140209;28;93785;-74
2024/01/23 10:47:05;;;;;;;;;;;15.90;57.20;;;;;;10115948;28;93965;-75
2024/01/23 10:52:14;;;;;;;;;;;15.90;57.20;;;;;;10117494;28;94436;-73
2024/01/23 10:57:27;;;;;;;;;;;15.90;57.20;;;;;;10124015;28;94525;-74
2024/01/23 11:02:30;;;;;;;;;;;15.90;57.10;;;;;;10118609;28;93380;-75
2024/01/23 11:07:46;;;;;;;;;;;15.90;57.00;;;;;;10110753;28;93715;-74
2024/01/23 11:12:54;;;;;;;;;;;15.80;57.10;;;;;;10124319;28;94422;-74
2024/01/23 11:18:19;;;;;;;;;;;15.80;57.10;;;;;;10108838;28;95628;-74
2024/01/23 11:23:23;;;;;;;;;;;15.80;57.10;;;;;;10095809;28;94352;-74
2024/01/23 11:28:26;;;;;;;;;;;15.70;57.00;;;;;;10112181;28;93846;-73
2024/01/23 11:33:28;;;;;;;;;;;15.80;57.20;;;;;;10096468;28;93579;-74
2024/01/23 11:38:47;;;;;;;;;;;15.80;57.10;;;;;;10127372;28;92602;-73
2024/01/23 11:43:53;;;;;;;;;;;15.80;57.20;;;;;;10106908;28;93296;-74
2024/01/23 11:48:55;;;;;;;;;;;15.70;57.20;;;;;;10098952;28;94417;-75
2024/01/23 11:53:58;;;;;;;;;;;15.70;57.10;;;;;;10105731;28;93030;-73
2024/01/23 11:59:00;;;;;;;;;;;15.70;57.20;;;;;;10108102;28;94005;-74
2024/01/23 12:04:02;;;;;;;;;;;15.70;57.20;;;;;;10101726;28;93667;-74
2024/01/23 12:09:04;;;;;;;;;;;15.70;57.20;;;;;;10121058;28;95839;-74
2024/01/23 12:14:06;;;;;;;;;;;15.70;57.30;;;;;;10116787;28;93644;-74
2024/01/23 12:19:09;;;;;;;;;;;15.70;57.30;;;;;;10114330;28;94926;-74
2024/01/23 12:24:11;;;;;;;;;;;15.70;57.30;;;;;;10114031;28;94450;-74
2024/01/23 12:29:19;;;;;;;;;;;15.70;57.40;;;;;;10127455;28;94130;-74
2024/01/23 12:34:21;;;;;;;;;;;15.70;57.40;;;;;;10127364;28;93737;-73
2024/01/23 12:39:23;;;;;;;;;;;15.70;57.40;;;;;;10121358;28;94165;-73
2024/01/23 12:44:26;;;;;;;;;;;15.70;57.20;;;;;;10125130;28;93722;-74
2024/01/23 12:49:28;;;;;;;;;;;15.70;57.30;;;;;;10123435;28;94865;-72
2024/01/23 12:54:30;;;;;;;;;;;15.60;57.30;;;;;;10092606;28;94470;-74
2024/01/23 12:59:32;;;;;;;;;;;15.60;57.40;;;;;;10112432;28;95697;-74
2024/01/23 13:04:34;;;;;;;;;;;15.60;57.40;;;;;;10103018;28;93428;-74
2024/01/23 13:09:36;;;;;;;;;;;15.60;57.40;;;;;;10105527;28;94476;-74
2024/01/23 13:14:39;;;;;;;;;;;15.60;57.40;;;;;;10125817;28;93588;-75
2024/01/23 13:19:41;;;;;;;;;;;15.60;57.40;;;;;;10119338;28;95104;-74
2024/01/23 13:24:43;;;;;;;;;;;15.50;57.50;;;;;;10118035;28;93760;-74
2024/01/23 13:29:46;;;;;;;;;;;15.50;57.40;;;;;;10107405;28;93827;-74
2024/01/23 13:34:48;;;;;;;;;;;15.50;57.40;;;;;;10112605;28;92581;-75
2024/01/23 13:39:52;;;;;;;;;;;15.50;57.40;;;;;;10115895;28;93552;-74
2024/01/23 13:44:54;;;;;;;;;;;15.50;57.40;;;;;;10091292;28;94106;-74
2024/01/23 13:49:56;;;;;;;;;;;15.50;57.30;;;;;;10108989;28;97047;-74
2024/01/23 13:54:59;;;;;;;;;;;15.50;57.40;;;;;;10118857;28;93453;-74
2024/01/23 14:00:01;;;;;;;;;;;15.50;57.30;;;;;;10116980;28;93737;-75
2024/01/23 14:05:02;;;;;;;;;;;15.50;57.30;;;;;;10106788;28;93342;-74
2024/01/23 14:10:05;;;;;;;;;;;15.50;57.30;;;;;;10120490;28;93936;-74
2024/01/23 14:15:07;;;;;;;;;;;15.50;57.30;;;;;;10107294;28;94161;-74
2024/01/23 14:20:12;;;;;;;;;;;15.60;57.20;;;;;;10131498;28;93210;-74
2024/01/23 14:25:14;;;;;;;;;;;15.60;57.10;;;;;;10122262;28;96279;-74
2024/01/23 14:30:17;;;;;;;;;;;15.70;56.90;;;;;;10099395;28;94824;-74
2024/01/23 14:35:20;;;;;;;;;;;15.70;56.80;;;;;;10100526;28;94935;-73
2024/01/23 14:40:23;;;;;;;;;;;15.70;56.70;;;;;;10148335;28;95908;-73
2024/01/23 14:45:25;;;;;;;;;;;15.70;56.70;;;;;;10144272;28;94733;-73
2024/01/23 14:50:27;;;;;;;;;;;15.70;56.90;;;;;;10121445;28;93908;-73
2024/01/23 14:55:34;;;;;;;;;;;15.70;56.90;;;;;;10108867;28;94844;-73
2024/01/23 15:00:36;;;;;;;;;;;15.60;56.90;;;;;;10109818;28;94651;-74
2024/01/23 15:05:38;;;;;;;;;;;15.60;56.90;;;;;;10110282;28;94639;-74
2024/01/23 15:10:40;;;;;;;;;;;15.60;56.90;;;;;;10106080;28;93551;-74
2024/01/23 15:15:42;;;;;;;;;;;15.60;57.10;;;;;;10127378;28;94022;-74
2024/01/23 15:20:44;;;;;;;;;;;15.50;57.10;;;;;;10126000;28;95724;-73
2024/01/23 15:25:47;;;;;;;;;;;15.50;57.20;;;;;;10121105;28;94697;-73
2024/01/23 15:30:51;;;;;;;;;;;15.50;57.20;;;;;;10121275;28;95757;-74
2024/01/23 15:35:53;;;;;;;;;;;15.50;57.30;;;;;;10123305;28;93480;-74
2024/01/23 15:40:55;;;;;;;;;;;15.40;57.30;;;;;;10132531;28;93275;-74
2024/01/23 15:45:57;;;;;;;;;;;15.40;57.40;;;;;;10111601;28;94441;-75
2024/01/23 15:50:59;;;;;;;;;;;15.40;57.40;;;;;;10126453;28;94583;-74
2024/01/23 15:56:07;;;;;;;;;;;15.40;57.50;;;;;;10116233;28;93496;-74
2024/01/23 16:01:09;;;;;;;;;;;15.50;57.30;;;;;;10114114;28;94245;-74
2024/01/23 16:06:11;;;;;;;;;;;15.50;57.10;;;;;;10125789;28;92976;-74
2024/01/23 16:11:14;;;;;;;;;;;15.60;57.10;;;;;;10114340;28;94697;-75
2024/01/23 16:16:16;;;;;;;;;;;15.60;57.00;;;;;;10124033;28;94547;-75
2024/01/23 16:21:18;;;;;;;;;;;15.60;57.10;;;;;;10120588;28;95853;-74
2024/01/23 16:26:20;;;;;;;;;;;15.60;57.00;;;;;;10108562;28;94413;-74
2024/01/23 16:31:22;;;;;;;;;;;15.50;57.00;;;;;;10102725;28;93498;-74
2024/01/23 16:36:24;;;;;;;;;;;15.50;57.00;;;;;;10111029;28;94404;-74
2024/01/23 16:41:27;;;;;;;;;;;15.50;57.10;;;;;;10128662;28;95000;-74
2024/01/23 16:46:29;;;;;;;;;;;15.50;57.30;;;;;;10129457;28;93543;-74
2024/01/23 16:51:31;;;;;;;;;;;15.70;57.20;;;;;;10140911;28;93588;-74
2024/01/23 16:56:33;;;;;;;;;;;16.00;56.90;;;;;;10116811;28;92793;-73
2024/01/23 17:01:35;;;;;;;;;;;16.30;56.30;;;;;;10120809;28;94752;-73
2024/01/23 17:06:37;;;;;;;;;;;16.60;55.80;;;;;;10086277;28;94119;-74
2024/01/23 17:11:39;;;;;;;;;;;16.90;55.40;;;;;;10100535;28;96396;-74
2024/01/23 17:16:41;;;;;;;;;;;17.10;54.90;;;;;;10109812;28;93417;-75
2024/01/23 17:21:44;;;;;;;;;;;17.30;54.50;;;;;;10117023;28;94759;-74
2024/01/23 17:26:47;;;;;;;;;;;17.40;54.10;;;;;;10117426;28;93470;-74
2024/01/23 17:31:52;;;;;;;;;;;17.50;53.90;;;;;;10120339;28;94443;-74
2024/01/23 17:36:54;;;;;;;;;;;17.70;53.70;;;;;;10124089;28;94004;-74
2024/01/23 17:41:56;;;;;;;;;;;17.80;53.50;;;;;;10114258;28;94685;-74
2024/01/23 17:46:58;;;;;;;;;;;17.90;53.30;;;;;;10120881;28;92771;-74
2024/01/23 17:52:00;;;;;;;;;;;18.00;53.10;;;;;;10123163;28;94466;-74
2024/01/23 17:57:02;;;;;;;;;;;17.90;53.10;;;;;;10117160;28;94547;-75
2024/01/23 18:02:04;;;;;;;;;;;17.80;53.20;;;;;;10112026;28;95904;-73
2024/01/23 18:07:06;;;;;;;;;;;17.80;53.50;;;;;;10107698;28;93517;-74
2024/01/23 18:12:12;;;;;;;;;;;17.90;53.50;;;;;;10105517;28;94168;-74
2024/01/23 18:17:14;;;;;;;;;;;18.00;53.40;;;;;;10104125;28;93695;-74
2024/01/23 18:22:16;;;;;;;;;;;18.10;53.20;;;;;;10138975;28;94477;-73
2024/01/23 18:27:18;;;;;;;;;;;18.20;53.00;;;;;;10125455;28;94433;-73
2024/01/23 18:32:21;;;;;;;;;;;18.20;52.90;;;;;;10128730;28;94323;-73
2024/01/23 18:37:22;;;;;;;;;;;18.10;52.90;;;;;;10121545;28;92785;-74
2024/01/23 18:42:25;;;;;;;;;;;18.00;53.00;;;;;;10129578;28;94308;-74
2024/01/23 18:47:28;;;;;;;;;;;17.80;53.20;;;;;;10142830;28;94679;-74
2024/01/23 18:52:31;;;;;;;;;;;17.70;53.50;;;;;;10142894;28;95838;-74
2024/01/23 18:57:36;;;;;;;;;;;17.60;53.80;;;;;;10137353;28;94576;-74
2024/01/23 19:02:38;;;;;;;;;;;17.50;54.00;;;;;;10134155;28;97605;-73
2024/01/23 19:07:42;;;;;;;;;;;17.30;54.30;;;;;;10129475;28;93427;-73
2024/01/23 19:12:44;;;;;;;;;;;17.20;54.50;;;;;;10138574;28;96538;-74
2024/01/23 19:17:46;;;;;;;;;;;17.10;54.80;;;;;;10131673;28;94480;-74
2024/01/23 19:22:48;;;;;;;;;;;17.00;55.00;;;;;;10133289;28;94242;-73
2024/01/23 19:27:50;;;;;;;;;;;16.90;55.20;;;;;;10131611;28;93851;-74
2024/01/23 19:32:52;;;;;;;;;;;16.80;55.40;;;;;;10137776;28;93419;-74
2024/01/23 19:37:54;;;;;;;;;;;16.70;55.40;;;;;;10129156;28;93814;-73
2024/01/23 19:42:56;;;;;;;;;;;16.60;55.70;;;;;;10125926;28;95873;-74
2024/01/23 19:47:58;;;;;;;;;;;16.60;55.80;;;;;;10126144;28;94476;-74
2024/01/23 19:53:01;;;;;;;;;;;16.50;56.00;;;;;;10104566;28;94472;-74
2024/01/23 19:58:03;;;;;;;;;;;16.40;56.10;;;;;;10125534;28;93425;-74
2024/01/23 20:03:08;;;;;;;;;;;16.40;56.30;;;;;;10125410;28;93790;-73
2024/01/23 20:08:10;;;;;;;;;;;16.40;56.50;;;;;;10111067;28;94192;-74
2024/01/23 20:13:12;;;;;;;;;;;16.30;56.60;;;;;;10120833;28;95109;-73
2024/01/23 20:18:13;;;;;;;;;;;16.30;56.80;;;;;;10107008;28;93474;-73
2024/01/23 20:23:20;;;;;;;;;;;16.30;57.00;;;;;;10122614;28;92972;-74
2024/01/23 20:28:22;;;;;;;;;;;16.20;57.10;;;;;;10128055;28;94825;-74
2024/01/23 20:33:23;;;;;;;;;;;16.20;57.20;;;;;;10119396;28;96641;-73
2024/01/23 20:38:25;;;;;;;;;;;16.20;57.30;;;;;;10125022;28;93689;-74
2024/01/23 20:43:27;;;;;;;;;;;16.10;57.30;;;;;;10113767;28;94514;-73
2024/01/23 20:48:29;;;;;;;;;;;16.10;57.40;;;;;;10129307;28;94988;-74
2024/01/23 20:53:31;;;;;;;;;;;16.10;57.50;;;;;;10128838;28;93470;-75
2024/01/23 20:58:33;;;;;;;;;;;16.00;57.50;;;;;;10104621;28;94470;-74
2024/01/23 21:03:35;;;;;;;;;;;16.00;57.70;;;;;;10120721;28;94237;-74
2024/01/23 21:08:36;;;;;;;;;;;15.90;57.70;;;;;;10120867;28;93388;-74
2024/01/23 21:13:42;;;;;;;;;;;15.90;57.80;;;;;;10102630;28;112651;-74
2024/01/23 21:18:44;;;;;;;;;;;15.90;57.90;;;;;;10109422;28;94361;-73
2024/01/23 21:23:46;;;;;;;;;;;15.90;58.00;;;;;;10117376;28;96186;-73
2024/01/23 21:28:49;;;;;;;;;;;15.90;58.00;;;;;;10116199;28;93286;-72
2024/01/23 21:33:50;;;;;;;;;;;15.90;58.20;;;;;;10120559;28;93542;-73
2024/01/23 21:38:52;;;;;;;;;;;15.90;58.40;;;;;;10105283;28;92885;-73
2024/01/23 21:43:54;;;;;;;;;;;15.90;58.40;;;;;;10103021;28;94536;-76
2024/01/23 21:48:56;;;;;;;;;;;15.80;58.30;;;;;;10103774;28;93163;-73
2024/01/23 21:53:58;;;;;;;;;;;15.80;58.40;;;;;;10103695;28;94341;-74
2024/01/23 21:59:00;;;;;;;;;;;15.90;58.30;;;;;;10110449;28;93686;-74
2024/01/23 22:04:02;;;;;;;;;;;16.00;58.30;;;;;;10098509;28;94442;-74
2024/01/23 22:09:05;;;;;;;;;;;16.00;58.10;;;;;;10120489;28;93535;-75
2024/01/23 22:14:07;;;;;;;;;;;16.00;58.10;;;;;;10117834;28;96219;-73
2024/01/23 22:19:09;;;;;;;;;;;16.00;58.10;;;;;;10122945;28;94834;-74
2024/01/23 22:24:16;;;;;;;;;;;16.00;58.20;;;;;;10131221;28;93291;-74
2024/01/23 22:29:19;;;;;;;;;;;16.00;58.30;;;;;;10121345;28;94417;-73
2024/01/23 22:34:21;;;;;;;;;;;16.00;58.40;;;;;;10120921;28;93485;-73
2024/01/23 22:39:24;;;;;;;;;;;16.00;58.50;;;;;;10135862;28;94622;-74
2024/01/23 22:44:37;;;;;;;;;;;16.00;58.60;;;;;;10110877;28;94507;-73
2024/01/23 22:49:38;;;;;;;;;;;15.90;58.70;;;;;;10102223;28;92432;-73
2024/01/23 22:54:41;;;;;;;;;;;15.90;58.80;;;;;;10100563;28;92740;-74
2024/01/23 22:59:46;;;;;;;;;;;15.80;58.90;;;;;;10122387;28;93251;-74
2024/01/23 23:04:48;;;;;;;;;;;15.90;59.20;;;;;;10095427;28;95853;-73
2024/01/23 23:09:50;;;;;;;;;;;15.80;58.90;;;;;;10114065;28;94933;-72
2024/01/23 23:14:52;;;;;;;;;;;15.80;58.70;;;;;;10126353;28;93506;-73
2024/01/23 23:19:54;;;;;;;;;;;15.80;58.50;;;;;;10127043;28;93493;-73
2024/01/23 23:24:56;;;;;;;;;;;15.80;58.20;;;;;;10133077;28;93424;-74
2024/01/23 23:29:58;;;;;;;;;;;15.80;57.90;;;;;;10126398;28;94252;-73
2024/01/23 23:34:59;;;;;;;;;;;15.80;57.70;;;;;;10126037;28;94562;-73
2024/01/23 23:40:03;;;;;;;;;;;15.80;57.60;;;;;;10124094;28;93704;-73
2024/01/23 23:45:05;;;;;;;;;;;15.80;57.50;;;;;;10114488;28;94547;-74
2024/01/23 23:50:08;;;;;;;;;;;15.80;57.30;;;;;;10110421;28;94876;-74
2024/01/23 23:55:10;;;;;;;;;;;15.80;57.90;;;;;;10123368;28;95746;-74
